ACA175 CYYZ-CYEG
Flight info
| Callsign | ACA175 |
|---|---|
| Flight time | N/A |
| Altitude | 34000 |
| Route | AVSEP7 MUSIT Q917 SSM DCT AGLIN Q831 GABOV DCT KOBID/N0459F360 Q908 TAGOT Q819 REFEX DCT CAMRA IGSOX3 |
| Aircraft | A320/M-SDE3FGHIRWY/LB1 |
Departure
| Time | 2026-05-05 22:52 |
|---|---|
| Airport | Toronto Pearson International Airport (CYYZ) |
Arrival
| Time | N/A |
|---|---|
| Airport | Edmonton International Airport (CYEG) |
| Time | Latitude | Longitude | Altitude | Speed | Heading |
|---|---|---|---|---|---|
| 2026-05-05 22:36 | 43.68199 | -79.61621 | 570 ft | 0 kts | 58° |
| 2026-05-05 22:39 | 43.68198 | -79.61623 | 570 ft | 1 kts | 58° |
| 2026-05-05 22:39 | 43.68190 | -79.61641 | 570 ft | 2 kts | 58° |
| 2026-05-05 22:40 | 43.68182 | -79.61659 | 570 ft | 2 kts | 58° |
| 2026-05-05 22:40 | 43.68174 | -79.61676 | 570 ft | 2 kts | 58° |
| 2026-05-05 22:40 | 43.68166 | -79.61694 | 570 ft | 2 kts | 76° |
| 2026-05-05 22:40 | 43.68166 | -79.61715 | 571 ft | 2 kts | 108° |
| 2026-05-05 22:41 | 43.68174 | -79.61732 | 571 ft | 2 kts | 137° |
| 2026-05-05 22:41 | 43.68183 | -79.61741 | 571 ft | 0 kts | 159° |
| 2026-05-05 22:41 | 43.68190 | -79.61743 | 571 ft | 0 kts | 163° |
| 2026-05-05 22:45 | 43.68183 | -79.61740 | 571 ft | 4 kts | 163° |
| 2026-05-05 22:45 | 43.68157 | -79.61793 | 572 ft | 10 kts | 253° |
| 2026-05-05 22:45 | 43.68124 | -79.61882 | 572 ft | 11 kts | 238° |
| 2026-05-05 22:46 | 43.68064 | -79.61961 | 572 ft | 11 kts | 223° |
| 2026-05-05 22:46 | 43.67996 | -79.62018 | 573 ft | 11 kts | 201° |
| 2026-05-05 22:46 | 43.67959 | -79.62093 | 572 ft | 11 kts | 314° |
| 2026-05-05 22:46 | 43.68019 | -79.62166 | 573 ft | 11 kts | 316° |
| 2026-05-05 22:47 | 43.68079 | -79.62245 | 573 ft | 12 kts | 316° |
| 2026-05-05 22:47 | 43.68142 | -79.62329 | 573 ft | 12 kts | 315° |
| 2026-05-05 22:47 | 43.68210 | -79.62423 | 571 ft | 14 kts | 314° |
| 2026-05-05 22:47 | 43.68294 | -79.62511 | 569 ft | 15 kts | 317° |
| 2026-05-05 22:48 | 43.68378 | -79.62620 | 566 ft | 17 kts | 315° |
| 2026-05-05 22:48 | 43.68472 | -79.62752 | 562 ft | 20 kts | 318° |
| 2026-05-05 22:48 | 43.68579 | -79.62885 | 558 ft | 21 kts | 316° |
| 2026-05-05 22:48 | 43.68689 | -79.63027 | 556 ft | 21 kts | 320° |
| 2026-05-05 22:49 | 43.68797 | -79.63168 | 556 ft | 20 kts | 315° |
| 2026-05-05 22:49 | 43.68904 | -79.63307 | 553 ft | 21 kts | 317° |
| 2026-05-05 22:49 | 43.69015 | -79.63452 | 550 ft | 22 kts | 315° |
| 2026-05-05 22:49 | 43.69143 | -79.63499 | 547 ft | 21 kts | 48° |
| 2026-05-05 22:50 | 43.69237 | -79.63426 | 549 ft | 12 kts | 2° |
| 2026-05-05 22:50 | 43.69325 | -79.63422 | 548 ft | 11 kts | 358° |
| 2026-05-05 22:50 | 43.69339 | -79.63423 | 548 ft | 0 kts | 352° |
| 2026-05-05 22:51 | 43.69352 | -79.63427 | 548 ft | 5 kts | 341° |
| 2026-05-05 22:51 | 43.69405 | -79.63489 | 546 ft | 11 kts | 307° |
| 2026-05-05 22:51 | 43.69384 | -79.63550 | 546 ft | 7 kts | 226° |
| 2026-05-05 22:52 | 43.69252 | -79.63741 | 543 ft | 59 kts | 226° |
| 2026-05-05 22:52 | 43.68816 | -79.64375 | 543 ft | 121 kts | 226° |
| 2026-05-05 22:52 | 43.68098 | -79.65407 | 563 ft | 170 kts | 228° |
| 2026-05-05 22:52 | 43.67272 | -79.66549 | 1187 ft | 167 kts | 227° |
| 2026-05-05 22:53 | 43.66492 | -79.67705 | 1823 ft | 167 kts | 233° |
| 2026-05-05 22:53 | 43.65764 | -79.68951 | 2372 ft | 170 kts | 234° |
| 2026-05-05 22:53 | 43.65001 | -79.70281 | 2717 ft | 185 kts | 234° |
| 2026-05-05 22:53 | 43.64181 | -79.71718 | 3046 ft | 200 kts | 234° |
| 2026-05-05 22:54 | 43.63289 | -79.73292 | 3383 ft | 217 kts | 235° |
| 2026-05-05 22:54 | 43.62305 | -79.75037 | 3683 ft | 238 kts | 234° |
| 2026-05-05 22:54 | 43.61260 | -79.76891 | 4136 ft | 253 kts | 234° |
| 2026-05-05 22:54 | 43.60312 | -79.78927 | 4897 ft | 251 kts | 253° |
| 2026-05-05 22:55 | 43.60254 | -79.81235 | 5684 ft | 249 kts | 284° |
| 2026-05-05 22:55 | 43.61051 | -79.83349 | 6516 ft | 253 kts | 306° |
| 2026-05-05 22:55 | 43.62360 | -79.85008 | 7266 ft | 258 kts | 313° |
| 2026-05-05 22:55 | 43.63746 | -79.86636 | 7958 ft | 261 kts | 311° |
| 2026-05-05 22:56 | 43.65097 | -79.88263 | 8621 ft | 264 kts | 310° |
| 2026-05-05 22:56 | 43.66486 | -79.89960 | 9282 ft | 267 kts | 308° |
| 2026-05-05 22:56 | 43.67871 | -79.91676 | 9926 ft | 270 kts | 308° |
| 2026-05-05 22:56 | 43.69323 | -79.93356 | 10504 ft | 280 kts | 312° |
| 2026-05-05 22:57 | 43.70989 | -79.94914 | 10798 ft | 302 kts | 319° |
| 2026-05-05 22:57 | 43.72897 | -79.96352 | 11079 ft | 320 kts | 322° |
| 2026-05-05 22:57 | 43.74931 | -79.97805 | 11366 ft | 334 kts | 323° |
| 2026-05-05 22:57 | 43.77026 | -79.99281 | 11817 ft | 342 kts | 323° |
| 2026-05-05 22:58 | 43.79153 | -80.00779 | 12378 ft | 346 kts | 323° |
| 2026-05-05 22:58 | 43.81326 | -80.02309 | 12956 ft | 348 kts | 323° |
| 2026-05-05 22:58 | 43.83481 | -80.03841 | 13513 ft | 351 kts | 322° |
| 2026-05-05 22:58 | 43.85643 | -80.05382 | 14049 ft | 353 kts | 322° |
| 2026-05-05 22:59 | 43.87846 | -80.06956 | 14573 ft | 356 kts | 322° |
| 2026-05-05 22:59 | 43.90068 | -80.08549 | 15084 ft | 359 kts | 322° |
| 2026-05-05 22:59 | 43.92218 | -80.10263 | 15559 ft | 354 kts | 315° |
| 2026-05-05 22:59 | 43.94090 | -80.12437 | 16074 ft | 345 kts | 305° |
| 2026-05-05 23:00 | 43.97056 | -80.17556 | 17039 ft | 341 kts | 298° |
| 2026-05-05 23:00 | 43.98483 | -80.20219 | 17499 ft | 343 kts | 298° |
| 2026-05-05 23:00 | 43.99901 | -80.22858 | 17979 ft | 345 kts | 297° |
| 2026-05-05 23:01 | 44.01358 | -80.25561 | 18427 ft | 346 kts | 298° |
| 2026-05-05 23:01 | 44.02793 | -80.28227 | 18854 ft | 348 kts | 297° |
| 2026-05-05 23:01 | 44.04237 | -80.30907 | 19295 ft | 350 kts | 297° |
| 2026-05-05 23:01 | 44.05715 | -80.33643 | 19735 ft | 351 kts | 297° |
| 2026-05-05 23:02 | 44.07165 | -80.36337 | 20188 ft | 351 kts | 297° |
| 2026-05-05 23:02 | 44.08629 | -80.39058 | 20531 ft | 354 kts | 297° |
| 2026-05-05 23:02 | 44.10109 | -80.41814 | 20897 ft | 357 kts | 297° |
| 2026-05-05 23:02 | 44.11613 | -80.44614 | 21307 ft | 358 kts | 297° |
| 2026-05-05 23:03 | 44.13110 | -80.47353 | 21720 ft | 360 kts | 299° |
| 2026-05-05 23:03 | 44.14743 | -80.50048 | 22081 ft | 365 kts | 302° |
| 2026-05-05 23:03 | 44.16452 | -80.52631 | 22495 ft | 366 kts | 303° |
| 2026-05-05 23:03 | 44.18194 | -80.55225 | 22841 ft | 367 kts | 303° |
| 2026-05-05 23:04 | 44.19941 | -80.57822 | 23168 ft | 369 kts | 303° |
| 2026-05-05 23:04 | 44.21705 | -80.60450 | 23510 ft | 370 kts | 303° |
| 2026-05-05 23:04 | 44.23448 | -80.63046 | 23825 ft | 371 kts | 303° |
| 2026-05-05 23:04 | 44.25217 | -80.65688 | 24139 ft | 373 kts | 302° |
| 2026-05-05 23:05 | 44.26982 | -80.68321 | 24514 ft | 373 kts | 302° |
| 2026-05-05 23:05 | 44.28771 | -80.70993 | 24804 ft | 376 kts | 302° |
| 2026-05-05 23:05 | 44.30557 | -80.73666 | 25089 ft | 378 kts | 302° |
| 2026-05-05 23:05 | 44.32338 | -80.76333 | 25419 ft | 379 kts | 302° |
| 2026-05-05 23:06 | 44.34130 | -80.79022 | 25678 ft | 382 kts | 302° |
| 2026-05-05 23:06 | 44.35968 | -80.81787 | 25966 ft | 384 kts | 302° |
| 2026-05-05 23:06 | 44.37770 | -80.84489 | 26347 ft | 383 kts | 302° |
| 2026-05-05 23:06 | 44.39566 | -80.87183 | 26667 ft | 383 kts | 301° |
| 2026-05-05 23:07 | 44.41402 | -80.89941 | 26885 ft | 386 kts | 301° |
| 2026-05-05 23:07 | 44.43228 | -80.92701 | 27084 ft | 389 kts | 301° |
| 2026-05-05 23:07 | 44.45074 | -80.95489 | 27423 ft | 388 kts | 301° |
| 2026-05-05 23:07 | 44.46896 | -80.98239 | 27690 ft | 389 kts | 301° |
| 2026-05-05 23:08 | 44.48732 | -81.01009 | 27931 ft | 391 kts | 301° |
| 2026-05-05 23:08 | 44.50603 | -81.03842 | 28147 ft | 393 kts | 301° |
| 2026-05-05 23:08 | 44.52436 | -81.06613 | 28359 ft | 394 kts | 301° |
| 2026-05-05 23:08 | 44.54341 | -81.09501 | 28531 ft | 397 kts | 301° |
| 2026-05-05 23:09 | 44.56210 | -81.12336 | 28756 ft | 398 kts | 301° |
| 2026-05-05 23:09 | 44.58094 | -81.15192 | 29066 ft | 396 kts | 301° |
| 2026-05-05 23:09 | 44.59972 | -81.18046 | 29248 ft | 398 kts | 301° |
| 2026-05-05 23:09 | 44.61865 | -81.20924 | 29437 ft | 399 kts | 300° |
| 2026-05-05 23:10 | 44.63728 | -81.23771 | 29616 ft | 400 kts | 301° |
| 2026-05-05 23:10 | 44.65635 | -81.26672 | 29895 ft | 399 kts | 300° |
| 2026-05-05 23:10 | 44.67495 | -81.29507 | 30137 ft | 398 kts | 300° |
| 2026-05-05 23:10 | 44.69367 | -81.32365 | 30366 ft | 397 kts | 300° |
| 2026-05-05 23:11 | 44.71239 | -81.35228 | 30623 ft | 396 kts | 300° |
| 2026-05-05 23:11 | 44.73111 | -81.38101 | 30860 ft | 395 kts | 300° |
| 2026-05-05 23:11 | 44.74960 | -81.40931 | 31101 ft | 394 kts | 300° |
| 2026-05-05 23:11 | 44.76808 | -81.43765 | 31376 ft | 392 kts | 300° |
| 2026-05-05 23:12 | 44.78642 | -81.46580 | 31607 ft | 391 kts | 300° |
| 2026-05-05 23:12 | 44.80506 | -81.49451 | 31769 ft | 392 kts | 300° |
| 2026-05-05 23:12 | 44.82335 | -81.52271 | 32057 ft | 389 kts | 300° |
| 2026-05-05 23:12 | 44.84175 | -81.55103 | 32309 ft | 388 kts | 300° |
| 2026-05-05 23:13 | 44.86003 | -81.57924 | 32412 ft | 389 kts | 300° |
| 2026-05-05 23:13 | 44.87839 | -81.60760 | 32520 ft | 390 kts | 300° |
| 2026-05-05 23:13 | 44.89652 | -81.63569 | 32636 ft | 391 kts | 300° |
| 2026-05-05 23:13 | 44.91501 | -81.66428 | 32813 ft | 390 kts | 300° |
| 2026-05-05 23:14 | 44.93333 | -81.69270 | 33030 ft | 389 kts | 300° |
| 2026-05-05 23:14 | 44.95164 | -81.72102 | 33216 ft | 389 kts | 300° |
| 2026-05-05 23:14 | 44.98813 | -81.77776 | 33469 ft | 390 kts | 300° |
| 2026-05-05 23:15 | 45.00631 | -81.80599 | 33684 ft | 388 kts | 300° |
| 2026-05-05 23:15 | 45.02478 | -81.83471 | 33787 ft | 389 kts | 300° |
| 2026-05-05 23:15 | 45.06126 | -81.89154 | 33844 ft | 392 kts | 300° |
| 2026-05-05 23:16 | 45.09796 | -81.94885 | 33834 ft | 391 kts | 300° |
| 2026-05-05 23:16 | 45.13442 | -82.00585 | 33825 ft | 390 kts | 301° |
| 2026-05-05 23:17 | 45.17096 | -82.06316 | 33818 ft | 390 kts | 300° |
| 2026-05-05 23:17 | 45.20765 | -82.12079 | 33822 ft | 391 kts | 301° |
| 2026-05-05 23:18 | 45.24379 | -82.17766 | 33821 ft | 390 kts | 300° |
| 2026-05-05 23:18 | 45.28029 | -82.23528 | 33815 ft | 388 kts | 301° |
| 2026-05-05 23:19 | 45.31620 | -82.29206 | 33811 ft | 388 kts | 301° |
| 2026-05-05 23:19 | 45.35232 | -82.34924 | 33818 ft | 388 kts | 301° |
| 2026-05-05 23:20 | 45.38845 | -82.40676 | 33825 ft | 388 kts | 300° |
| 2026-05-05 23:20 | 45.42247 | -82.46596 | 33791 ft | 382 kts | 298° |
| 2026-05-05 23:21 | 45.45572 | -82.52563 | 33796 ft | 383 kts | 298° |
| 2026-05-05 23:21 | 45.48896 | -82.58547 | 33811 ft | 385 kts | 298° |
| 2026-05-05 23:22 | 45.52210 | -82.64523 | 33804 ft | 384 kts | 298° |
| 2026-05-05 23:22 | 45.55536 | -82.70542 | 33801 ft | 383 kts | 297° |
| 2026-05-05 23:23 | 45.58849 | -82.76544 | 33799 ft | 383 kts | 298° |
| 2026-05-05 23:23 | 45.62141 | -82.82521 | 33815 ft | 383 kts | 298° |
| 2026-05-05 23:24 | 45.65454 | -82.88554 | 33770 ft | 384 kts | 298° |
| 2026-05-05 23:24 | 45.68748 | -82.94550 | 33799 ft | 385 kts | 298° |
| 2026-05-05 23:25 | 45.72059 | -83.00603 | 33809 ft | 385 kts | 298° |
| 2026-05-05 23:25 | 45.75358 | -83.06647 | 33811 ft | 384 kts | 298° |
| 2026-05-05 23:26 | 45.78669 | -83.12721 | 33800 ft | 384 kts | 298° |
| 2026-05-05 23:26 | 45.81948 | -83.18748 | 33818 ft | 386 kts | 299° |
| 2026-05-05 23:27 | 45.85261 | -83.24851 | 33824 ft | 386 kts | 299° |
| 2026-05-05 23:27 | 45.88546 | -83.30917 | 33808 ft | 385 kts | 298° |
| 2026-05-05 23:28 | 45.91849 | -83.37032 | 33822 ft | 387 kts | 299° |
| 2026-05-05 23:28 | 45.95141 | -83.43137 | 33803 ft | 387 kts | 298° |
| 2026-05-05 23:29 | 45.98442 | -83.49271 | 33838 ft | 388 kts | 299° |
| 2026-05-05 23:29 | 46.01731 | -83.55403 | 33829 ft | 388 kts | 299° |
| 2026-05-05 23:30 | 46.05061 | -83.61624 | 33834 ft | 390 kts | 299° |
| 2026-05-05 23:30 | 46.08381 | -83.67832 | 33846 ft | 390 kts | 298° |
| 2026-05-05 23:31 | 46.11699 | -83.74057 | 33831 ft | 393 kts | 298° |
| 2026-05-05 23:31 | 46.15016 | -83.80290 | 33854 ft | 393 kts | 298° |
| 2026-05-05 23:32 | 46.18340 | -83.86556 | 33837 ft | 392 kts | 299° |
| 2026-05-05 23:32 | 46.21645 | -83.92791 | 33839 ft | 393 kts | 299° |
| 2026-05-05 23:33 | 46.24980 | -83.99102 | 33824 ft | 394 kts | 299° |
| 2026-05-05 23:33 | 46.28320 | -84.05439 | 33831 ft | 396 kts | 299° |
| 2026-05-05 23:34 | 46.31580 | -84.11713 | 33843 ft | 396 kts | 297° |
| 2026-05-05 23:34 | 46.34779 | -84.18282 | 33842 ft | 395 kts | 297° |
| 2026-05-05 23:35 | 46.37943 | -84.24789 | 33841 ft | 396 kts | 298° |
| 2026-05-05 23:35 | 46.41088 | -84.31406 | 33837 ft | 395 kts | 295° |
| 2026-05-05 23:36 | 46.43854 | -84.38219 | 33839 ft | 393 kts | 294° |
| 2026-05-05 23:36 | 46.46592 | -84.45164 | 33835 ft | 393 kts | 294° |
| 2026-05-05 23:37 | 46.49302 | -84.52062 | 33849 ft | 395 kts | 294° |
| 2026-05-05 23:37 | 46.52027 | -84.59023 | 33842 ft | 395 kts | 294° |
| 2026-05-05 23:38 | 46.54751 | -84.65997 | 33833 ft | 396 kts | 293° |
| 2026-05-05 23:38 | 46.57471 | -84.72973 | 33841 ft | 396 kts | 293° |
| 2026-05-05 23:39 | 46.60179 | -84.79943 | 33838 ft | 397 kts | 293° |
| 2026-05-05 23:39 | 46.62916 | -84.87007 | 33839 ft | 399 kts | 293° |
| 2026-05-05 23:40 | 46.65651 | -84.94080 | 33851 ft | 400 kts | 293° |
| 2026-05-05 23:40 | 46.68359 | -85.01106 | 33839 ft | 401 kts | 294° |
| 2026-05-05 23:41 | 46.71104 | -85.08242 | 33840 ft | 401 kts | 294° |
| 2026-05-05 23:41 | 46.73815 | -85.15312 | 33845 ft | 403 kts | 294° |
| 2026-05-05 23:42 | 46.76566 | -85.22501 | 33853 ft | 403 kts | 294° |
| 2026-05-05 23:42 | 46.79299 | -85.29661 | 33846 ft | 405 kts | 294° |
| 2026-05-05 23:43 | 46.82036 | -85.36852 | 33842 ft | 405 kts | 294° |
| 2026-05-05 23:43 | 46.84760 | -85.44034 | 33842 ft | 406 kts | 294° |
| 2026-05-05 23:44 | 46.87505 | -85.51283 | 33848 ft | 406 kts | 294° |
| 2026-05-05 23:44 | 46.90250 | -85.58553 | 33847 ft | 407 kts | 294° |
| 2026-05-05 23:45 | 46.93004 | -85.65874 | 33847 ft | 408 kts | 294° |
| 2026-05-05 23:45 | 46.95741 | -85.73161 | 33851 ft | 409 kts | 294° |
| 2026-05-05 23:46 | 46.98478 | -85.80468 | 33850 ft | 410 kts | 294° |
| 2026-05-05 23:46 | 47.01217 | -85.87804 | 33847 ft | 410 kts | 294° |
| 2026-05-05 23:47 | 47.03963 | -85.95180 | 33847 ft | 411 kts | 294° |
| 2026-05-05 23:47 | 47.06702 | -86.02552 | 33844 ft | 411 kts | 294° |
| 2026-05-05 23:48 | 47.09453 | -86.09980 | 33847 ft | 410 kts | 294° |
| 2026-05-05 23:48 | 47.12175 | -86.17349 | 33844 ft | 411 kts | 294° |
| 2026-05-05 23:49 | 47.14909 | -86.24776 | 33845 ft | 412 kts | 294° |
| 2026-05-05 23:49 | 47.17633 | -86.32193 | 33841 ft | 413 kts | 294° |
| 2026-05-05 23:50 | 47.20361 | -86.39642 | 33834 ft | 413 kts | 294° |
| 2026-05-05 23:50 | 47.23098 | -86.47134 | 33831 ft | 414 kts | 294° |
| 2026-05-05 23:51 | 47.25811 | -86.54586 | 33830 ft | 414 kts | 295° |
| 2026-05-05 23:51 | 47.28532 | -86.62079 | 33832 ft | 414 kts | 295° |
| 2026-05-05 23:52 | 47.31238 | -86.69550 | 33837 ft | 414 kts | 294° |
| 2026-05-05 23:52 | 47.33938 | -86.77026 | 33833 ft | 414 kts | 294° |
| 2026-05-05 23:53 | 47.36658 | -86.84580 | 33837 ft | 415 kts | 294° |
| 2026-05-05 23:53 | 47.39371 | -86.92132 | 33844 ft | 415 kts | 294° |
| 2026-05-05 23:54 | 47.42074 | -86.99682 | 33851 ft | 415 kts | 294° |
| 2026-05-05 23:54 | 47.44773 | -87.07245 | 33850 ft | 416 kts | 294° |
| 2026-05-05 23:55 | 47.47471 | -87.14824 | 33846 ft | 417 kts | 294° |
| 2026-05-05 23:55 | 47.50167 | -87.22420 | 33841 ft | 417 kts | 295° |
| 2026-05-05 23:56 | 47.52885 | -87.30096 | 33841 ft | 418 kts | 294° |
| 2026-05-05 23:56 | 47.55577 | -87.37724 | 33840 ft | 418 kts | 294° |
| 2026-05-05 23:57 | 47.58275 | -87.45388 | 33836 ft | 419 kts | 294° |
| 2026-05-05 23:57 | 47.60973 | -87.53080 | 33835 ft | 419 kts | 295° |
| 2026-05-05 23:58 | 47.63667 | -87.60780 | 33835 ft | 419 kts | 295° |
| 2026-05-05 23:58 | 47.66356 | -87.68494 | 33841 ft | 419 kts | 294° |
| 2026-05-05 23:59 | 47.69022 | -87.76159 | 33839 ft | 419 kts | 294° |
| 2026-05-05 23:59 | 47.71699 | -87.83878 | 33837 ft | 419 kts | 294° |
| 2026-05-06 00:00 | 47.74356 | -87.91563 | 33834 ft | 419 kts | 294° |
| 2026-05-06 00:00 | 47.77035 | -87.99330 | 33833 ft | 420 kts | 294° |
| 2026-05-06 00:01 | 47.79694 | -88.07067 | 33825 ft | 421 kts | 294° |
| 2026-05-06 00:01 | 47.82373 | -88.14884 | 33823 ft | 422 kts | 294° |
| 2026-05-06 00:02 | 47.85025 | -88.22652 | 33820 ft | 422 kts | 294° |
| 2026-05-06 00:02 | 47.87688 | -88.30466 | 33825 ft | 422 kts | 294° |
| 2026-05-06 00:03 | 47.90356 | -88.38321 | 33834 ft | 422 kts | 294° |
| 2026-05-06 00:03 | 47.93011 | -88.46165 | 33840 ft | 422 kts | 294° |
| 2026-05-06 00:04 | 47.95638 | -88.53951 | 33845 ft | 422 kts | 294° |
| 2026-05-06 00:04 | 47.98284 | -88.61813 | 33847 ft | 422 kts | 294° |
| 2026-05-06 00:05 | 48.02235 | -88.73604 | 33842 ft | 423 kts | 294° |
| 2026-05-06 00:06 | 48.04857 | -88.81456 | 33845 ft | 423 kts | 294° |
| 2026-05-06 00:06 | 48.07494 | -88.89379 | 33844 ft | 424 kts | 294° |
| 2026-05-06 00:07 | 48.10129 | -88.97314 | 33836 ft | 425 kts | 294° |
| 2026-05-06 00:07 | 48.12757 | -89.05262 | 33831 ft | 426 kts | 294° |
| 2026-05-06 00:08 | 48.15379 | -89.13211 | 33831 ft | 426 kts | 294° |
| 2026-05-06 00:08 | 48.18001 | -89.21182 | 33837 ft | 426 kts | 294° |
| 2026-05-06 00:09 | 48.20621 | -89.29171 | 33837 ft | 426 kts | 294° |
| 2026-05-06 00:09 | 48.23245 | -89.37207 | 33839 ft | 427 kts | 294° |
| 2026-05-06 00:10 | 48.25819 | -89.45274 | 33837 ft | 427 kts | 292° |
| 2026-05-06 00:10 | 48.28203 | -89.53426 | 33836 ft | 427 kts | 292° |
| 2026-05-06 00:11 | 48.30586 | -89.61642 | 33830 ft | 427 kts | 292° |
| 2026-05-06 00:11 | 48.32947 | -89.69808 | 33826 ft | 428 kts | 291° |
| 2026-05-06 00:12 | 48.35332 | -89.78069 | 33822 ft | 428 kts | 291° |
| 2026-05-06 00:12 | 48.37693 | -89.86280 | 33817 ft | 428 kts | 291° |
| 2026-05-06 00:13 | 48.40045 | -89.94486 | 33813 ft | 429 kts | 291° |
| 2026-05-06 00:13 | 48.42413 | -90.02773 | 33821 ft | 429 kts | 291° |
| 2026-05-06 00:14 | 48.44765 | -90.11038 | 33817 ft | 429 kts | 291° |
| 2026-05-06 00:14 | 48.47121 | -90.19346 | 33818 ft | 429 kts | 291° |
| 2026-05-06 00:15 | 48.49459 | -90.27618 | 33816 ft | 430 kts | 292° |
| 2026-05-06 00:15 | 48.51805 | -90.35943 | 33814 ft | 431 kts | 292° |
| 2026-05-06 00:16 | 48.54142 | -90.44266 | 33812 ft | 431 kts | 291° |
| 2026-05-06 00:16 | 48.56491 | -90.52663 | 33813 ft | 432 kts | 291° |
| 2026-05-06 00:17 | 48.58822 | -90.61027 | 33818 ft | 432 kts | 292° |
| 2026-05-06 00:17 | 48.61144 | -90.69385 | 33819 ft | 432 kts | 291° |
| 2026-05-06 00:18 | 48.63459 | -90.77748 | 33820 ft | 432 kts | 291° |
| 2026-05-06 00:18 | 48.65778 | -90.86152 | 33826 ft | 433 kts | 291° |
| 2026-05-06 00:19 | 48.68096 | -90.94587 | 33829 ft | 434 kts | 291° |
| 2026-05-06 00:19 | 48.70405 | -91.03020 | 33835 ft | 434 kts | 291° |
| 2026-05-06 00:20 | 48.72709 | -91.11462 | 33840 ft | 434 kts | 291° |
| 2026-05-06 00:20 | 48.75013 | -91.19935 | 33845 ft | 434 kts | 291° |
| 2026-05-06 00:21 | 48.77300 | -91.28378 | 33848 ft | 434 kts | 291° |
| 2026-05-06 00:21 | 48.79576 | -91.36808 | 33848 ft | 435 kts | 291° |
| 2026-05-06 00:22 | 48.81863 | -91.45310 | 33849 ft | 435 kts | 291° |
| 2026-05-06 00:22 | 48.84139 | -91.53805 | 33849 ft | 436 kts | 291° |
| 2026-05-06 00:23 | 48.86414 | -91.62324 | 33851 ft | 437 kts | 291° |
| 2026-05-06 00:23 | 48.88677 | -91.70834 | 33856 ft | 437 kts | 290° |
| 2026-05-06 00:24 | 48.90946 | -91.79396 | 33858 ft | 436 kts | 291° |
| 2026-05-06 00:24 | 48.93204 | -91.87942 | 33858 ft | 436 kts | 291° |
| 2026-05-06 00:25 | 48.95462 | -91.96522 | 33861 ft | 437 kts | 291° |
| 2026-05-06 00:25 | 48.97741 | -92.05215 | 33863 ft | 438 kts | 291° |
| 2026-05-06 00:26 | 48.99955 | -92.13698 | 33863 ft | 438 kts | 291° |
| 2026-05-06 00:26 | 49.02173 | -92.22229 | 33864 ft | 439 kts | 291° |
| 2026-05-06 00:27 | 49.04415 | -92.30881 | 33865 ft | 440 kts | 291° |
| 2026-05-06 00:27 | 49.06663 | -92.39581 | 33871 ft | 439 kts | 291° |
| 2026-05-06 00:28 | 49.08905 | -92.48292 | 33870 ft | 439 kts | 291° |
| 2026-05-06 00:28 | 49.11116 | -92.56924 | 33874 ft | 439 kts | 291° |
| 2026-05-06 00:29 | 49.13339 | -92.65632 | 33876 ft | 440 kts | 290° |
| 2026-05-06 00:29 | 49.15563 | -92.74381 | 33876 ft | 441 kts | 290° |
| 2026-05-06 00:30 | 49.17762 | -92.83062 | 33878 ft | 441 kts | 290° |
| 2026-05-06 00:30 | 49.19963 | -92.91782 | 33880 ft | 441 kts | 290° |
| 2026-05-06 00:31 | 49.22171 | -93.00562 | 33886 ft | 442 kts | 290° |
| 2026-05-06 00:31 | 49.24364 | -93.09322 | 33894 ft | 442 kts | 290° |
| 2026-05-06 00:32 | 49.26555 | -93.18108 | 33898 ft | 442 kts | 290° |
| 2026-05-06 00:32 | 49.28736 | -93.26885 | 33900 ft | 441 kts | 290° |
| 2026-05-06 00:33 | 49.30915 | -93.35696 | 33906 ft | 441 kts | 291° |
| 2026-05-06 00:33 | 49.33081 | -93.44486 | 33907 ft | 442 kts | 291° |
| 2026-05-06 00:34 | 49.35239 | -93.53275 | 33910 ft | 442 kts | 291° |
| 2026-05-06 00:34 | 49.37406 | -93.62132 | 33912 ft | 442 kts | 291° |
| 2026-05-06 00:35 | 49.39554 | -93.70952 | 33912 ft | 443 kts | 290° |
| 2026-05-06 00:35 | 49.41694 | -93.79775 | 33914 ft | 443 kts | 290° |
| 2026-05-06 00:36 | 49.43835 | -93.88635 | 33917 ft | 442 kts | 290° |
| 2026-05-06 00:36 | 49.45968 | -93.97498 | 33917 ft | 443 kts | 290° |
| 2026-05-06 00:37 | 49.48096 | -94.06416 | 33922 ft | 443 kts | 290° |
| 2026-05-06 00:37 | 49.50115 | -94.15340 | 33922 ft | 444 kts | 289° |
| 2026-05-06 00:38 | 49.52126 | -94.24330 | 33929 ft | 444 kts | 289° |
| 2026-05-06 00:38 | 49.54138 | -94.33340 | 33930 ft | 444 kts | 290° |
| 2026-05-06 00:39 | 49.56134 | -94.42297 | 33927 ft | 444 kts | 290° |
| 2026-05-06 00:39 | 49.58134 | -94.51311 | 33928 ft | 444 kts | 290° |
| 2026-05-06 00:40 | 49.60123 | -94.60305 | 33934 ft | 444 kts | 290° |
| 2026-05-06 00:40 | 49.62099 | -94.69282 | 33931 ft | 444 kts | 289° |
| 2026-05-06 00:41 | 49.64084 | -94.78337 | 33930 ft | 445 kts | 289° |
| 2026-05-06 00:41 | 49.66060 | -94.87392 | 33934 ft | 445 kts | 289° |
| 2026-05-06 00:42 | 49.68022 | -94.96425 | 33936 ft | 445 kts | 289° |
| 2026-05-06 00:42 | 49.69991 | -95.05525 | 33937 ft | 446 kts | 289° |
| 2026-05-06 00:43 | 49.71932 | -95.14538 | 33946 ft | 446 kts | 289° |
| 2026-05-06 00:43 | 49.73879 | -95.23618 | 33951 ft | 446 kts | 289° |
| 2026-05-06 00:44 | 49.75833 | -95.32776 | 33958 ft | 446 kts | 289° |
| 2026-05-06 00:44 | 49.77768 | -95.41883 | 33960 ft | 447 kts | 289° |
| 2026-05-06 00:45 | 49.79699 | -95.51010 | 33963 ft | 447 kts | 289° |
| 2026-05-06 00:45 | 49.81616 | -95.60113 | 33964 ft | 448 kts | 289° |
| 2026-05-06 00:46 | 49.83528 | -95.69235 | 33970 ft | 448 kts | 289° |
| 2026-05-06 00:46 | 49.85443 | -95.78410 | 33969 ft | 448 kts | 289° |
| 2026-05-06 00:47 | 49.87346 | -95.87575 | 33976 ft | 449 kts | 289° |
| 2026-05-06 00:47 | 49.89249 | -95.96776 | 33977 ft | 450 kts | 289° |
| 2026-05-06 00:48 | 49.91141 | -96.05962 | 33976 ft | 449 kts | 289° |
| 2026-05-06 00:48 | 49.93021 | -96.15143 | 33980 ft | 449 kts | 289° |
| 2026-05-06 00:49 | 49.94907 | -96.24389 | 33979 ft | 449 kts | 289° |
| 2026-05-06 00:49 | 49.96771 | -96.33576 | 33982 ft | 449 kts | 289° |
| 2026-05-06 00:50 | 49.98637 | -96.42812 | 33985 ft | 449 kts | 289° |
| 2026-05-06 00:50 | 50.00487 | -96.52016 | 33986 ft | 450 kts | 289° |
| 2026-05-06 00:51 | 50.02340 | -96.61266 | 33988 ft | 451 kts | 289° |
| 2026-05-06 00:51 | 50.04192 | -96.70571 | 33994 ft | 451 kts | 288° |
| 2026-05-06 00:52 | 50.06030 | -96.79848 | 33996 ft | 450 kts | 288° |
| 2026-05-06 00:52 | 50.07860 | -96.89122 | 34008 ft | 450 kts | 289° |
| 2026-05-06 00:53 | 50.09684 | -96.98409 | 34005 ft | 449 kts | 289° |
| 2026-05-06 00:53 | 50.11497 | -97.07685 | 34017 ft | 450 kts | 289° |
| 2026-05-06 00:54 | 50.13315 | -97.17034 | 34017 ft | 451 kts | 288° |
| 2026-05-06 00:54 | 50.15117 | -97.26354 | 34020 ft | 451 kts | 289° |
| 2026-05-06 00:55 | 50.16913 | -97.35684 | 34016 ft | 451 kts | 289° |
| 2026-05-06 00:55 | 50.18697 | -97.44991 | 34014 ft | 451 kts | 289° |
| 2026-05-06 00:56 | 50.20479 | -97.54337 | 34015 ft | 451 kts | 289° |
| 2026-05-06 00:56 | 50.22260 | -97.63721 | 34018 ft | 451 kts | 289° |
| 2026-05-06 00:57 | 50.24028 | -97.73090 | 34016 ft | 451 kts | 288° |
| 2026-05-06 00:57 | 50.25797 | -97.82512 | 34018 ft | 452 kts | 288° |
| 2026-05-06 00:58 | 50.27566 | -97.91976 | 34017 ft | 452 kts | 288° |
| 2026-05-06 00:58 | 50.29311 | -98.01359 | 34022 ft | 452 kts | 288° |
| 2026-05-06 00:59 | 50.31056 | -98.10795 | 34028 ft | 451 kts | 288° |
| 2026-05-06 00:59 | 50.32785 | -98.20190 | 34034 ft | 451 kts | 288° |
| 2026-05-06 01:00 | 50.34523 | -98.29680 | 34037 ft | 452 kts | 289° |
| 2026-05-06 01:00 | 50.36240 | -98.39108 | 34039 ft | 452 kts | 289° |
| 2026-05-06 01:01 | 50.37956 | -98.48566 | 34041 ft | 453 kts | 289° |
| 2026-05-06 01:01 | 50.39663 | -98.58038 | 34039 ft | 453 kts | 289° |
| 2026-05-06 01:02 | 50.41367 | -98.67548 | 34046 ft | 453 kts | 288° |
| 2026-05-06 01:02 | 50.43332 | -98.76902 | 34045 ft | 451 kts | 293° |
| 2026-05-06 01:03 | 50.45564 | -98.86053 | 34050 ft | 451 kts | 294° |
| 2026-05-06 01:03 | 50.47813 | -98.95250 | 34056 ft | 451 kts | 294° |
| 2026-05-06 01:04 | 50.50049 | -99.04451 | 34058 ft | 451 kts | 294° |
| 2026-05-06 01:04 | 50.52260 | -99.13597 | 34056 ft | 451 kts | 294° |
| 2026-05-06 01:05 | 50.54472 | -99.22787 | 34061 ft | 451 kts | 294° |
| 2026-05-06 01:05 | 50.56674 | -99.31973 | 34054 ft | 451 kts | 294° |
| 2026-05-06 01:06 | 50.58869 | -99.41179 | 34059 ft | 451 kts | 294° |
| 2026-05-06 01:06 | 50.61085 | -99.50501 | 34048 ft | 451 kts | 294° |
| 2026-05-06 01:07 | 50.63267 | -99.59728 | 34039 ft | 451 kts | 294° |
| 2026-05-06 01:07 | 50.65434 | -99.68926 | 34015 ft | 452 kts | 293° |
| 2026-05-06 01:08 | 50.67613 | -99.78217 | 34002 ft | 452 kts | 293° |
| 2026-05-06 01:08 | 50.69781 | -99.87500 | 33995 ft | 452 kts | 293° |
| 2026-05-06 01:09 | 50.71934 | -99.96757 | 33998 ft | 452 kts | 293° |
| 2026-05-06 01:09 | 50.74086 | -100.06057 | 34003 ft | 452 kts | 294° |
| 2026-05-06 01:10 | 50.76224 | -100.15329 | 34006 ft | 452 kts | 294° |
| 2026-05-06 01:10 | 50.78370 | -100.24682 | 34020 ft | 451 kts | 294° |
| 2026-05-06 01:11 | 50.80498 | -100.33994 | 34018 ft | 451 kts | 294° |
| 2026-05-06 01:11 | 50.82633 | -100.43378 | 34022 ft | 451 kts | 294° |
| 2026-05-06 01:12 | 50.84742 | -100.52691 | 34027 ft | 451 kts | 294° |
| 2026-05-06 01:12 | 50.86865 | -100.62104 | 34022 ft | 451 kts | 294° |
| 2026-05-06 01:13 | 50.88961 | -100.71443 | 34021 ft | 451 kts | 293° |
| 2026-05-06 01:13 | 50.91063 | -100.80841 | 34023 ft | 451 kts | 293° |
| 2026-05-06 01:14 | 50.94179 | -100.94872 | 34033 ft | 452 kts | 293° |
| 2026-05-06 01:14 | 50.96263 | -101.04297 | 34034 ft | 451 kts | 293° |
| 2026-05-06 01:15 | 50.98336 | -101.13722 | 34040 ft | 450 kts | 293° |
| 2026-05-06 01:15 | 51.00396 | -101.23133 | 34043 ft | 450 kts | 293° |
| 2026-05-06 01:16 | 51.02447 | -101.32539 | 34049 ft | 450 kts | 293° |
| 2026-05-06 01:16 | 51.04478 | -101.41898 | 34046 ft | 450 kts | 293° |
| 2026-05-06 01:17 | 51.06505 | -101.51283 | 34056 ft | 449 kts | 294° |
| 2026-05-06 01:17 | 51.08536 | -101.60733 | 34057 ft | 450 kts | 294° |
| 2026-05-06 01:18 | 51.10551 | -101.70148 | 34063 ft | 449 kts | 293° |
| 2026-05-06 01:18 | 51.12562 | -101.79580 | 34062 ft | 449 kts | 292° |
| 2026-05-06 01:19 | 51.14565 | -101.89025 | 34061 ft | 449 kts | 293° |
| 2026-05-06 01:19 | 51.16554 | -101.98460 | 34057 ft | 448 kts | 293° |
| 2026-05-06 01:20 | 51.18535 | -102.07888 | 34065 ft | 448 kts | 293° |
| 2026-05-06 01:20 | 51.20510 | -102.17326 | 34060 ft | 447 kts | 293° |
| 2026-05-06 01:21 | 51.22469 | -102.26736 | 34069 ft | 448 kts | 293° |
| 2026-05-06 01:21 | 51.24423 | -102.36166 | 34074 ft | 448 kts | 293° |
| 2026-05-06 01:22 | 51.26388 | -102.45657 | 34096 ft | 447 kts | 294° |
| 2026-05-06 01:22 | 51.28544 | -102.54918 | 34102 ft | 446 kts | 295° |
| 2026-05-06 01:23 | 51.30727 | -102.64133 | 34086 ft | 445 kts | 295° |
| 2026-05-06 01:23 | 51.32920 | -102.73444 | 34091 ft | 446 kts | 295° |
| 2026-05-06 01:24 | 51.35094 | -102.82726 | 34082 ft | 446 kts | 295° |
| 2026-05-06 01:24 | 51.37245 | -102.91952 | 34083 ft | 445 kts | 295° |
| 2026-05-06 01:25 | 51.39397 | -103.01228 | 34076 ft | 445 kts | 295° |
| 2026-05-06 01:25 | 51.41542 | -103.10506 | 34072 ft | 445 kts | 295° |
| 2026-05-06 01:26 | 51.43674 | -103.19774 | 34067 ft | 444 kts | 295° |
| 2026-05-06 01:26 | 51.45799 | -103.29050 | 34062 ft | 445 kts | 295° |
| 2026-05-06 01:27 | 51.47914 | -103.38329 | 34064 ft | 444 kts | 295° |
| 2026-05-06 01:27 | 51.50021 | -103.47609 | 34066 ft | 444 kts | 295° |
| 2026-05-06 01:28 | 51.52120 | -103.56895 | 34066 ft | 443 kts | 295° |
| 2026-05-06 01:28 | 51.54221 | -103.66225 | 34068 ft | 444 kts | 294° |
| 2026-05-06 01:29 | 51.56307 | -103.75535 | 34071 ft | 444 kts | 294° |
| 2026-05-06 01:29 | 51.58377 | -103.84817 | 34072 ft | 444 kts | 294° |
| 2026-05-06 01:30 | 51.60446 | -103.94138 | 34075 ft | 443 kts | 294° |
| 2026-05-06 01:30 | 51.62504 | -104.03449 | 34073 ft | 443 kts | 294° |
| 2026-05-06 01:31 | 51.64559 | -104.12786 | 34075 ft | 443 kts | 294° |
| 2026-05-06 01:31 | 51.66608 | -104.22137 | 34079 ft | 443 kts | 294° |
| 2026-05-06 01:32 | 51.68664 | -104.31564 | 34081 ft | 443 kts | 294° |
| 2026-05-06 01:32 | 51.70695 | -104.40919 | 34091 ft | 442 kts | 295° |
| 2026-05-06 01:33 | 51.72709 | -104.50241 | 34097 ft | 441 kts | 294° |
| 2026-05-06 01:33 | 51.74723 | -104.59593 | 34097 ft | 441 kts | 294° |
| 2026-05-06 01:34 | 51.76734 | -104.68985 | 34103 ft | 442 kts | 294° |
| 2026-05-06 01:34 | 51.78719 | -104.78303 | 34107 ft | 443 kts | 294° |
| 2026-05-06 01:35 | 51.80718 | -104.87721 | 34092 ft | 443 kts | 294° |
| 2026-05-06 01:35 | 51.82699 | -104.97097 | 34083 ft | 443 kts | 294° |
| 2026-05-06 01:36 | 51.84665 | -105.06449 | 34103 ft | 442 kts | 294° |
| 2026-05-06 01:36 | 51.86638 | -105.15865 | 34109 ft | 441 kts | 294° |
| 2026-05-06 01:37 | 51.88600 | -105.25242 | 34112 ft | 440 kts | 294° |
| 2026-05-06 01:37 | 51.90547 | -105.34583 | 34112 ft | 440 kts | 294° |
| 2026-05-06 01:38 | 51.92493 | -105.43960 | 34114 ft | 441 kts | 295° |
| 2026-05-06 01:38 | 51.94431 | -105.53355 | 34111 ft | 440 kts | 295° |
| 2026-05-06 01:39 | 51.96364 | -105.62779 | 34114 ft | 440 kts | 295° |
| 2026-05-06 01:39 | 51.98291 | -105.72211 | 34115 ft | 440 kts | 294° |
| 2026-05-06 01:40 | 52.00227 | -105.81741 | 34116 ft | 439 kts | 294° |
| 2026-05-06 01:40 | 52.02180 | -105.91394 | 34117 ft | 438 kts | 294° |
| 2026-05-06 01:41 | 52.04069 | -106.00777 | 34120 ft | 438 kts | 294° |
| 2026-05-06 01:41 | 52.05955 | -106.10181 | 34121 ft | 437 kts | 294° |
| 2026-05-06 01:42 | 52.07827 | -106.19578 | 34130 ft | 437 kts | 295° |
| 2026-05-06 01:42 | 52.09692 | -106.28975 | 34128 ft | 436 kts | 295° |
| 2026-05-06 01:43 | 52.11547 | -106.38359 | 34140 ft | 436 kts | 295° |
| 2026-05-06 01:43 | 52.13413 | -106.47842 | 34143 ft | 435 kts | 295° |
| 2026-05-06 01:44 | 52.15253 | -106.57260 | 34147 ft | 435 kts | 295° |
| 2026-05-06 01:44 | 52.17096 | -106.66729 | 34155 ft | 435 kts | 295° |
| 2026-05-06 01:45 | 52.18869 | -106.76108 | 34166 ft | 437 kts | 294° |
| 2026-05-06 01:45 | 52.20516 | -106.85671 | 34163 ft | 438 kts | 294° |
| 2026-05-06 01:46 | 52.22144 | -106.95201 | 34155 ft | 436 kts | 294° |
| 2026-05-06 01:46 | 52.23774 | -107.04739 | 34149 ft | 436 kts | 294° |
| 2026-05-06 01:47 | 52.25394 | -107.14239 | 34142 ft | 434 kts | 294° |
| 2026-05-06 01:47 | 52.27020 | -107.23807 | 34142 ft | 435 kts | 294° |
| 2026-05-06 01:48 | 52.28615 | -107.33270 | 34141 ft | 433 kts | 295° |
| 2026-05-06 01:48 | 52.30210 | -107.42766 | 34140 ft | 431 kts | 295° |
| 2026-05-06 01:49 | 52.31790 | -107.52209 | 34139 ft | 432 kts | 295° |